createdAt,value
2018-05-07T00:00:02.706Z,55.46
2018-05-07T00:02:31.106Z,54.25
2018-05-07T00:04:59.183Z,53.63
2018-05-07T00:07:27.255Z,53.72
2018-05-07T00:09:55.327Z,52.51
2018-05-07T00:12:23.442Z,51.89
2018-05-07T00:14:51.446Z,50.88
2018-05-07T00:17:19.498Z,52.40
2018-05-07T00:19:47.598Z,54.10
2018-05-07T00:22:15.682Z,53.98
2018-05-07T00:24:43.704Z,52.45
2018-05-07T00:27:11.788Z,52.15
2018-05-07T00:29:39.876Z,52.40
2018-05-07T00:32:08.094Z,52.56
2018-05-07T00:34:36.302Z,52.56
2018-05-07T00:37:04.291Z,52.66
2018-05-07T00:39:32.348Z,53.43
2018-05-07T00:42:00.310Z,52.56
2018-05-07T00:44:28.467Z,54.31
2018-05-07T00:46:56.436Z,52.88
2018-05-07T00:49:24.386Z,56.00
2018-05-07T00:51:52.470Z,53.02
2018-05-07T00:54:20.519Z,53.58
2018-05-07T00:56:48.510Z,55.41
2018-05-07T00:59:16.551Z,53.90
2018-05-07T01:01:44.576Z,53.54
2018-05-07T01:04:12.918Z,52.39
2018-05-07T01:06:41.069Z,52.94
2018-05-07T01:09:09.087Z,54.05
2018-05-07T01:11:37.057Z,54.21
2018-05-07T01:14:05.111Z,54.57
2018-05-07T01:16:33.128Z,54.09
2018-05-07T01:19:01.152Z,52.32
2018-05-07T01:21:29.245Z,55.75
2018-05-07T01:23:57.272Z,54.44
2018-05-07T01:26:25.417Z,52.11
2018-05-07T01:28:53.460Z,50.68
2018-05-07T01:31:21.473Z,50.44
2018-05-07T01:33:49.519Z,51.88
2018-05-07T01:36:17.586Z,52.35
2018-05-07T01:38:45.627Z,53.95
2018-05-07T01:41:13.672Z,53.78
2018-05-07T01:43:41.684Z,51.85
2018-05-07T01:46:09.683Z,51.49
2018-05-07T01:48:37.697Z,51.50
2018-05-07T01:51:05.728Z,51.46
2018-05-07T01:53:33.891Z,51.52
2018-05-07T01:56:02.006Z,52.61
2018-05-07T01:58:30.066Z,51.59
2018-05-07T02:00:58.107Z,51.31
2018-05-07T02:03:26.098Z,50.93
2018-05-07T02:05:54.400Z,50.77
2018-05-07T02:08:22.383Z,51.63
2018-05-07T02:10:50.470Z,52.06
2018-05-07T02:13:18.489Z,51.74
2018-05-07T02:15:46.539Z,52.72
2018-05-07T02:18:14.656Z,52.75
2018-05-07T02:20:42.717Z,52.17
2018-05-07T02:23:10.711Z,52.28
2018-05-07T02:25:38.771Z,55.16
2018-05-07T02:28:06.843Z,53.88
2018-05-07T02:30:34.869Z,52.74
2018-05-07T02:33:02.879Z,52.12
2018-05-07T02:35:30.898Z,52.20
2018-05-07T02:37:58.914Z,54.97
2018-05-07T02:40:26.946Z,55.51
2018-05-07T02:42:55.000Z,56.80
2018-05-07T02:45:22.992Z,57.61
2018-05-07T02:47:50.985Z,55.71
2018-05-07T02:50:18.967Z,55.32
2018-05-07T02:52:47.025Z,55.01
2018-05-07T02:55:15.070Z,56.64
2018-05-07T02:57:43.206Z,58.72
2018-05-07T03:00:11.318Z,55.79
2018-05-07T03:02:39.411Z,56.56
2018-05-07T03:05:07.459Z,58.81
2018-05-07T03:07:35.793Z,56.50
2018-05-07T03:10:03.930Z,57.37
2018-05-07T03:12:31.946Z,56.44
2018-05-07T03:15:00.043Z,56.28
2018-05-07T03:17:28.185Z,56.91
2018-05-07T03:19:56.200Z,56.23
2018-05-07T03:22:24.262Z,56.99
2018-05-07T03:24:52.394Z,55.93
2018-05-07T03:27:20.475Z,54.17
2018-05-07T03:29:48.512Z,52.98
2018-05-07T03:32:16.508Z,52.94
2018-05-07T03:34:44.630Z,54.81
2018-05-07T03:37:12.701Z,55.35
2018-05-07T03:39:40.727Z,56.26
2018-05-07T03:42:08.858Z,56.58
2018-05-07T03:44:36.887Z,56.11
2018-05-07T03:47:04.975Z,56.95
2018-05-07T03:49:33.021Z,56.10
2018-05-07T03:52:01.064Z,58.30
2018-05-07T03:54:29.115Z,54.39
2018-05-07T03:56:57.261Z,54.46
2018-05-07T03:59:25.306Z,53.73
2018-05-07T04:01:53.347Z,53.33
2018-05-07T04:04:21.451Z,53.42
2018-05-07T04:06:49.500Z,55.27
2018-05-07T04:09:17.762Z,54.62
2018-05-07T04:11:45.819Z,54.73
2018-05-07T04:14:14.025Z,54.43
2018-05-07T04:16:53.986Z,53.41
2018-05-07T04:19:34.330Z,52.44
2018-05-07T04:22:14.291Z,52.48
2018-05-07T04:24:42.439Z,52.73
2018-05-07T04:27:10.436Z,53.13
2018-05-07T04:29:39.144Z,53.82
2018-05-07T04:32:07.143Z,54.38
2018-05-07T04:34:35.204Z,54.64
2018-05-07T04:37:03.236Z,54.78
2018-05-07T04:39:31.366Z,54.66
2018-05-07T04:41:59.486Z,52.11
2018-05-07T04:44:27.719Z,52.57
2018-05-07T04:46:55.882Z,52.79
2018-05-07T04:49:23.861Z,51.80
2018-05-07T04:51:51.855Z,52.02
2018-05-07T04:54:19.882Z,53.58
2018-05-07T04:56:47.902Z,53.27
2018-05-07T04:59:16.033Z,52.59
2018-05-07T05:01:44.106Z,52.01
2018-05-07T05:04:12.094Z,51.84
2018-05-07T05:06:40.110Z,51.95
2018-05-07T05:09:08.082Z,51.79
2018-05-07T05:11:36.536Z,53.65
2018-05-07T05:14:04.554Z,55.12
2018-05-07T05:16:32.531Z,55.15
2018-05-07T05:19:00.542Z,54.53
2018-05-07T05:21:28.568Z,56.47
2018-05-07T05:23:56.499Z,55.25
2018-05-07T05:26:24.546Z,58.34
2018-05-07T05:28:52.724Z,55.52
2018-05-07T05:31:20.695Z,56.54
2018-05-07T05:33:48.805Z,55.83
2018-05-07T05:36:17.020Z,55.77
2018-05-07T05:38:45.022Z,54.37
2018-05-07T05:41:12.944Z,56.39
2018-05-07T05:43:41.030Z,54.83
2018-05-07T05:46:09.083Z,56.91
2018-05-07T05:48:37.198Z,56.90
2018-05-07T05:51:05.278Z,56.46
2018-05-07T05:53:33.294Z,55.98
2018-05-07T05:56:01.245Z,58.08
2018-05-07T06:01:11.413Z,54.79
2018-05-07T06:03:39.470Z,53.86
2018-05-07T06:06:07.506Z,53.75
2018-05-07T06:08:36.623Z,53.95
2018-05-07T06:11:04.709Z,56.08
2018-05-07T06:13:32.924Z,55.81
2018-05-07T06:16:00.937Z,55.77
2018-05-07T06:18:28.949Z,56.08
2018-05-07T06:20:57.013Z,57.71
2018-05-07T06:23:25.037Z,56.81
2018-05-07T06:25:53.035Z,55.37
2018-05-07T06:28:21.083Z,55.99
2018-05-07T06:30:49.140Z,55.77
2018-05-07T06:33:17.121Z,55.23
2018-05-07T06:35:45.161Z,57.36
2018-05-07T06:38:13.183Z,57.01
2018-05-07T06:40:41.233Z,54.90
2018-05-07T06:43:09.275Z,53.65
2018-05-07T06:45:37.491Z,53.91
2018-05-07T06:48:05.592Z,53.30
2018-05-07T06:50:33.636Z,52.37
2018-05-07T06:53:01.649Z,51.95
2018-05-07T06:55:29.726Z,52.97
2018-05-07T06:57:57.777Z,52.71
2018-05-07T07:00:25.805Z,53.47
2018-05-07T07:02:53.875Z,51.69
2018-05-07T07:05:21.910Z,51.31
2018-05-07T07:07:49.932Z,50.90
2018-05-07T07:10:17.944Z,51.54
2018-05-07T07:12:45.944Z,50.90
2018-05-07T07:15:14.257Z,51.56
2018-05-07T07:17:42.724Z,49.26
2018-05-07T07:20:10.718Z,51.07
2018-05-07T07:22:38.738Z,51.68
2018-05-07T07:25:06.733Z,51.21
2018-05-07T07:27:34.788Z,49.63
2018-05-07T07:30:02.844Z,54.49
2018-05-07T07:32:30.830Z,53.41
2018-05-07T07:34:58.901Z,52.14
2018-05-07T07:37:26.985Z,53.33
2018-05-07T07:39:55.018Z,52.61
2018-05-07T07:42:23.064Z,56.45
2018-05-07T07:44:51.051Z,57.95
2018-05-07T07:47:19.257Z,59.32
2018-05-07T07:49:47.111Z,56.79
2018-05-07T07:52:15.130Z,57.71
2018-05-07T07:54:43.119Z,58.09
2018-05-07T07:57:11.224Z,57.77
2018-05-07T07:59:39.249Z,58.21
2018-05-07T08:02:07.325Z,61.00
2018-05-07T08:04:35.314Z,59.68
2018-05-07T08:07:03.338Z,59.55
2018-05-07T08:09:31.363Z,59.25
2018-05-07T08:11:59.380Z,57.11
2018-05-07T08:14:27.369Z,57.51
2018-05-07T08:16:55.705Z,57.76
2018-05-07T08:19:23.720Z,56.72
2018-05-07T08:21:51.706Z,58.22
2018-05-07T08:24:19.717Z,59.63
2018-05-07T08:26:47.770Z,59.66
2018-05-07T08:29:15.828Z,58.50
2018-05-07T08:31:43.888Z,58.21
2018-05-07T08:34:12.054Z,56.95
2018-05-07T08:36:40.030Z,55.39
2018-05-07T08:39:08.000Z,60.65
2018-05-07T08:41:36.007Z,58.83
2018-05-07T08:44:04.012Z,58.42
2018-05-07T08:46:32.028Z,59.53
2018-05-07T08:49:00.058Z,61.63
2018-05-07T08:51:28.044Z,59.64
2018-05-07T08:53:55.963Z,60.20
2018-05-07T08:56:23.944Z,59.96
2018-05-07T08:58:51.903Z,57.26
2018-05-07T09:01:19.978Z,56.28
2018-05-07T09:03:47.979Z,54.74
2018-05-07T09:06:15.962Z,51.81
2018-05-07T09:08:43.983Z,50.43
2018-05-07T09:11:11.958Z,51.42
2018-05-07T09:13:39.982Z,49.91
2018-05-07T09:16:08.007Z,48.98
2018-05-07T09:18:36.475Z,49.21
2018-05-07T09:21:04.464Z,50.40
2018-05-07T09:23:32.443Z,46.43
2018-05-07T09:26:00.530Z,43.13
2018-05-07T09:28:28.605Z,42.30
2018-05-07T09:30:56.633Z,39.71
2018-05-07T09:33:24.708Z,37.68
2018-05-07T09:35:52.947Z,35.86
2018-05-07T09:38:20.953Z,35.56
2018-05-07T09:40:48.953Z,34.10
2018-05-07T09:43:17.110Z,33.27
2018-05-07T09:45:45.111Z,33.84
2018-05-07T09:48:13.147Z,33.74
2018-05-07T09:50:41.230Z,32.55
2018-05-07T09:53:09.247Z,33.13
2018-05-07T09:55:37.254Z,31.46
2018-05-07T09:58:05.383Z,29.52
2018-05-07T10:00:37.558Z,29.38
2018-05-07T10:03:05.654Z,29.77
2018-05-07T10:05:33.760Z,28.38
2018-05-07T10:08:01.796Z,27.09
2018-05-07T10:10:30.128Z,27.59
2018-05-07T10:12:58.170Z,27.03
2018-05-07T10:15:26.276Z,28.79
2018-05-07T10:17:54.286Z,28.15
2018-05-07T10:20:22.460Z,29.62
2018-05-07T10:22:50.490Z,29.92
2018-05-07T10:25:18.539Z,30.60
2018-05-07T10:27:46.564Z,28.98
2018-05-07T10:30:15.183Z,30.87
2018-05-07T10:32:43.253Z,30.49
2018-05-07T10:35:11.369Z,30.13
2018-05-07T10:37:39.389Z,29.57
2018-05-07T10:40:07.412Z,29.00
2018-05-07T10:42:35.439Z,29.69
2018-05-07T10:45:03.451Z,31.79
2018-05-07T10:47:31.509Z,31.96
2018-05-07T10:49:59.545Z,32.84
2018-05-07T10:52:27.559Z,31.90
2018-05-07T10:54:55.653Z,33.73
2018-05-07T10:57:23.719Z,31.98
2018-05-07T10:59:51.746Z,33.19
2018-05-07T11:02:19.840Z,34.43
2018-05-07T11:04:47.807Z,35.40
2018-05-07T11:07:15.883Z,37.61
2018-05-07T11:09:43.891Z,35.59
2018-05-07T11:12:11.856Z,37.11
2018-05-07T11:14:39.846Z,36.10
2018-05-07T11:17:07.877Z,37.00
2018-05-07T11:19:35.955Z,36.69
2018-05-07T11:22:04.512Z,37.40
2018-05-07T11:24:32.557Z,38.36
2018-05-07T11:27:00.571Z,40.29
2018-05-07T11:29:28.665Z,39.84
2018-05-07T11:31:56.612Z,37.93
2018-05-07T11:34:24.672Z,38.71
2018-05-07T11:36:52.685Z,37.15
2018-05-07T11:39:20.705Z,39.07
2018-05-07T11:41:48.678Z,38.80
2018-05-07T11:44:16.707Z,36.98
2018-05-07T11:46:44.776Z,38.22
2018-05-07T11:49:12.950Z,37.02
2018-05-07T11:51:40.998Z,36.52
2018-05-07T11:54:09.038Z,36.80
2018-05-07T11:56:37.052Z,36.37
2018-05-07T11:59:05.006Z,34.46
2018-05-07T12:01:33.039Z,35.76
2018-05-07T12:04:01.045Z,35.74
2018-05-07T12:06:29.036Z,34.35
2018-05-07T12:08:57.127Z,34.08
2018-05-07T12:11:25.067Z,34.72
2018-05-07T12:13:53.093Z,36.54
2018-05-07T12:16:21.108Z,35.03
2018-05-07T12:18:49.078Z,35.87
2018-05-07T12:21:17.141Z,34.98
2018-05-07T12:23:45.339Z,33.93
2018-05-07T12:26:13.398Z,32.74
2018-05-07T12:28:41.408Z,33.05
2018-05-07T12:31:09.438Z,31.59
2018-05-07T12:33:37.438Z,31.57
2018-05-07T12:36:05.513Z,31.95
2018-05-07T12:38:33.474Z,29.45
2018-05-07T12:41:01.519Z,29.25
2018-05-07T12:43:29.659Z,30.59
2018-05-07T12:45:57.716Z,32.34
2018-05-07T12:48:26.797Z,30.56
2018-05-07T12:50:54.848Z,30.81
2018-05-07T12:53:22.887Z,30.44
2018-05-07T12:55:50.933Z,29.29
2018-05-07T12:58:18.960Z,28.77
2018-05-07T13:00:46.974Z,27.71
2018-05-07T13:03:15.031Z,28.18
2018-05-07T13:05:43.015Z,28.94
2018-05-07T13:08:11.131Z,30.08
2018-05-07T13:10:39.260Z,30.25
2018-05-07T13:13:07.353Z,31.64
2018-05-07T13:15:35.398Z,31.60
2018-05-07T13:18:03.483Z,32.00
2018-05-07T13:20:31.536Z,29.60
2018-05-07T13:22:59.625Z,30.22
2018-05-07T13:25:27.923Z,30.30
2018-05-07T13:27:55.895Z,29.93
2018-05-07T13:30:23.944Z,29.52
2018-05-07T13:32:52.047Z,29.41
2018-05-07T13:35:20.702Z,28.57
2018-05-07T13:37:48.757Z,28.45
2018-05-07T13:40:16.726Z,29.04
2018-05-07T13:42:44.757Z,30.46
2018-05-07T13:45:12.791Z,31.42
2018-05-07T13:47:40.813Z,30.14
2018-05-07T13:50:08.911Z,31.08
2018-05-07T13:52:36.951Z,30.94
2018-05-07T13:55:05.037Z,31.50
2018-05-07T13:57:33.077Z,30.15
2018-05-07T14:00:01.101Z,30.20
2018-05-07T14:02:29.118Z,30.44
2018-05-07T14:04:57.146Z,30.81
2018-05-07T14:07:25.123Z,31.78
2018-05-07T14:09:53.152Z,32.43
2018-05-07T14:12:21.134Z,33.89
2018-05-07T14:14:49.223Z,33.91
2018-05-07T14:17:17.248Z,34.49
2018-05-07T14:19:45.298Z,31.99
2018-05-07T14:22:13.334Z,34.10
2018-05-07T14:24:41.334Z,33.78
2018-05-07T14:27:09.483Z,33.81
2018-05-07T14:29:37.527Z,33.34
2018-05-07T14:32:05.545Z,31.95
2018-05-07T14:34:33.561Z,30.82
2018-05-07T14:37:01.508Z,30.09
2018-05-07T14:39:29.520Z,30.80
2018-05-07T14:41:57.538Z,29.94
2018-05-07T14:44:25.617Z,30.72
2018-05-07T14:46:53.655Z,31.56
2018-05-07T14:49:21.600Z,30.50
2018-05-07T14:51:49.602Z,30.41
2018-05-07T14:54:17.593Z,30.31
2018-05-07T14:56:45.713Z,30.46
2018-05-07T14:59:13.701Z,31.92
2018-05-07T15:01:41.800Z,32.72
2018-05-07T15:04:09.823Z,32.09
2018-05-07T15:06:37.852Z,31.99
2018-05-07T15:09:06.813Z,31.69
2018-05-07T15:11:34.829Z,33.05
2018-05-07T15:14:14.774Z,32.71
2018-05-07T15:16:42.863Z,32.29
2018-05-07T15:19:10.920Z,32.32
2018-05-07T15:21:39.248Z,32.07
2018-05-07T15:24:07.241Z,34.13
2018-05-07T15:26:35.234Z,35.16
2018-05-07T15:29:03.751Z,37.39
2018-05-07T15:31:31.951Z,37.87
2018-05-07T15:34:00.023Z,37.06
2018-05-07T15:36:28.057Z,37.14
2018-05-07T15:38:56.083Z,38.43
2018-05-07T15:41:25.041Z,35.47
2018-05-07T15:43:53.097Z,36.38
2018-05-07T15:46:21.162Z,36.96
2018-05-07T15:48:49.182Z,37.13
2018-05-07T15:51:17.227Z,38.59
2018-05-07T15:53:45.230Z,35.07
2018-05-07T15:56:13.278Z,37.21
2018-05-07T15:58:41.313Z,35.86
2018-05-07T16:01:09.339Z,37.28
2018-05-07T16:03:37.454Z,37.45
2018-05-07T16:06:06.506Z,37.81
2018-05-07T16:08:34.486Z,37.02
2018-05-07T16:11:02.475Z,36.87
2018-05-07T16:13:30.499Z,37.39
2018-05-07T16:15:58.471Z,38.81
2018-05-07T16:18:26.462Z,39.07
2018-05-07T16:20:54.560Z,38.17
2018-05-07T16:23:22.878Z,38.67
2018-05-07T16:25:50.718Z,38.48
2018-05-07T16:28:18.692Z,37.97
2018-05-07T16:30:47.084Z,37.73
2018-05-07T16:33:15.160Z,38.10
2018-05-07T16:35:43.187Z,38.23
2018-05-07T16:38:11.236Z,38.17
2018-05-07T16:40:39.217Z,39.07
2018-05-07T16:43:07.222Z,40.00
2018-05-07T16:45:35.212Z,41.27
2018-05-07T16:48:03.238Z,42.20
2018-05-07T16:50:31.237Z,41.24
2018-05-07T16:52:59.253Z,40.08
2018-05-07T16:55:27.233Z,40.69
2018-05-07T16:57:55.186Z,41.03
2018-05-07T17:00:23.226Z,40.59
2018-05-07T17:02:51.264Z,40.40
2018-05-07T17:05:19.300Z,39.44
2018-05-07T17:07:47.307Z,41.06
2018-05-07T17:10:15.350Z,42.54
2018-05-07T17:12:43.360Z,42.44
2018-05-07T17:15:11.399Z,41.86
2018-05-07T17:17:39.421Z,41.47
2018-05-07T17:20:07.452Z,40.95
2018-05-07T17:22:35.454Z,40.53
2018-05-07T17:25:03.514Z,42.09
2018-05-07T17:27:31.479Z,43.01
2018-05-07T17:29:59.591Z,41.62
2018-05-07T17:32:27.911Z,43.93
2018-05-07T17:34:55.912Z,43.09
2018-05-07T17:37:23.951Z,44.64
2018-05-07T17:39:52.031Z,46.04
2018-05-07T17:42:19.855Z,44.26
2018-05-07T17:48:09.636Z,45.19
2018-05-07T17:50:37.693Z,44.63
2018-05-07T17:53:05.648Z,46.33
2018-05-07T17:55:33.937Z,46.17
2018-05-07T17:58:01.985Z,45.95
2018-05-07T18:00:30.101Z,45.65
2018-05-07T18:02:58.103Z,44.92
2018-05-07T18:05:26.105Z,44.49
2018-05-07T18:07:54.143Z,44.42
2018-05-07T18:10:22.292Z,44.48
2018-05-07T18:12:50.284Z,45.09
2018-05-07T18:15:18.389Z,45.58
2018-05-07T18:17:46.407Z,46.87
2018-05-07T18:20:14.429Z,47.21
2018-05-07T18:22:42.455Z,47.17
2018-05-07T18:25:10.459Z,46.02
2018-05-07T18:27:38.537Z,46.06
2018-05-07T18:30:06.582Z,46.56
2018-05-07T18:32:34.941Z,46.68
2018-05-07T18:35:02.967Z,46.21
2018-05-07T18:37:30.981Z,44.99
2018-05-07T18:39:59.027Z,46.25
2018-05-07T18:42:26.992Z,45.80
2018-05-07T18:44:54.968Z,47.54
2018-05-07T18:47:22.914Z,47.10
2018-05-07T18:49:50.950Z,48.09
2018-05-07T18:52:18.946Z,49.03
2018-05-07T18:54:46.967Z,49.09
2018-05-07T18:57:14.952Z,49.89
2018-05-07T18:59:43.010Z,50.62
2018-05-07T19:02:11.080Z,49.65
2018-05-07T19:04:39.042Z,51.44
2018-05-07T19:07:07.069Z,51.89
2018-05-07T19:09:35.056Z,50.55
2018-05-07T19:12:03.070Z,50.49
2018-05-07T19:14:31.103Z,52.99
2018-05-07T19:16:59.095Z,52.68
2018-05-07T19:19:27.143Z,51.28
2018-05-07T19:21:55.218Z,50.31
2018-05-07T19:24:23.228Z,51.03
2018-05-07T19:26:51.181Z,52.74
2018-05-07T19:29:19.172Z,53.12
2018-05-07T19:31:47.224Z,52.57
2018-05-07T19:34:15.670Z,52.19
2018-05-07T19:36:43.666Z,52.97
2018-05-07T19:39:11.652Z,54.60
2018-05-07T19:41:39.702Z,53.46
2018-05-07T19:44:07.696Z,54.95
2018-05-07T19:46:35.670Z,55.05
2018-05-07T19:49:03.717Z,53.99
2018-05-07T19:51:31.850Z,54.11
2018-05-07T19:53:59.881Z,53.04
2018-05-07T19:56:27.895Z,52.53
2018-05-07T19:58:55.918Z,52.54
2018-05-07T20:01:23.952Z,53.00
2018-05-07T20:03:51.989Z,54.29
2018-05-07T20:06:20.077Z,56.02
2018-05-07T20:08:48.187Z,55.74
2018-05-07T20:11:16.149Z,56.06
2018-05-07T20:13:44.115Z,55.16
2018-05-07T20:16:12.094Z,54.37
2018-05-07T20:18:40.077Z,52.97
2018-05-07T20:21:08.127Z,53.19
2018-05-07T20:23:36.183Z,53.70
2018-05-07T20:26:04.253Z,54.56
2018-05-07T20:28:32.255Z,54.36
2018-05-07T20:31:00.265Z,53.86
2018-05-07T20:33:28.269Z,53.79
2018-05-07T20:35:56.913Z,52.52
2018-05-07T20:38:24.937Z,53.47
2018-05-07T20:40:52.933Z,54.22
2018-05-07T20:43:20.929Z,53.31
2018-05-07T20:45:48.964Z,52.29
2018-05-07T20:48:17.046Z,52.60
2018-05-07T20:50:45.043Z,51.93
2018-05-07T20:53:13.078Z,52.04
2018-05-07T20:55:41.058Z,52.48
2018-05-07T20:58:09.149Z,52.38
2018-05-07T21:00:37.206Z,53.85
2018-05-07T21:03:05.294Z,56.39
2018-05-07T21:05:33.321Z,55.45
2018-05-07T21:08:01.299Z,54.00
2018-05-07T21:10:29.340Z,55.06
2018-05-07T21:12:57.420Z,54.60
2018-05-07T21:15:25.460Z,59.13
2018-05-07T21:17:53.426Z,59.91
2018-05-07T21:20:21.509Z,58.12
2018-05-07T21:22:49.642Z,57.15
2018-05-07T21:25:17.675Z,55.94
2018-05-07T21:27:45.678Z,59.14
2018-05-07T21:30:13.705Z,56.19
2018-05-07T21:32:41.751Z,55.47
2018-05-07T21:35:09.753Z,57.22
2018-05-07T21:37:37.885Z,56.51
2018-05-07T21:40:05.915Z,55.44
2018-05-07T21:42:33.967Z,54.99
2018-05-07T21:45:01.999Z,55.07
2018-05-07T21:47:29.982Z,54.44
2018-05-07T21:49:58.045Z,54.57
2018-05-07T21:52:26.045Z,54.16
2018-05-07T21:54:54.062Z,54.82
2018-05-07T21:57:22.081Z,54.43
2018-05-07T21:59:50.118Z,53.96
2018-05-07T22:02:18.167Z,54.08
2018-05-07T22:04:46.171Z,54.29
2018-05-07T22:07:14.274Z,54.11
2018-05-07T22:09:42.265Z,54.76
2018-05-07T22:12:10.253Z,54.43
2018-05-07T22:14:38.217Z,55.04
2018-05-07T22:17:06.217Z,55.21
2018-05-07T22:19:34.354Z,54.50
2018-05-07T22:22:02.431Z,54.54
2018-05-07T22:24:30.411Z,54.20
2018-05-07T22:26:58.417Z,54.40
2018-05-07T22:29:26.455Z,56.43
2018-05-07T22:31:54.468Z,59.04
2018-05-07T22:34:22.454Z,58.80
2018-05-07T22:36:50.407Z,59.29
2018-05-07T22:39:18.626Z,62.10
2018-05-07T22:41:46.686Z,63.70
2018-05-07T22:44:14.710Z,62.93
2018-05-07T22:46:42.701Z,63.12
2018-05-07T22:49:10.674Z,62.64
2018-05-07T22:51:38.752Z,63.95
2018-05-07T22:54:06.740Z,64.13
2018-05-07T22:56:34.808Z,64.57
2018-05-07T22:59:02.964Z,64.16
2018-05-07T23:01:30.961Z,62.78
2018-05-07T23:03:58.979Z,60.05
2018-05-07T23:06:27.005Z,59.14
2018-05-07T23:08:55.163Z,60.19
2018-05-07T23:11:23.160Z,59.67
2018-05-07T23:13:51.163Z,57.80
2018-05-07T23:16:19.183Z,56.66
2018-05-07T23:18:47.222Z,59.22
2018-05-07T23:21:15.244Z,58.24
2018-05-07T23:23:43.168Z,60.02
2018-05-07T23:26:11.200Z,59.15
2018-05-07T23:28:39.248Z,57.76
2018-05-07T23:31:07.276Z,58.26
2018-05-07T23:33:35.248Z,57.20
2018-05-07T23:36:03.228Z,56.68
2018-05-07T23:38:31.275Z,57.14
2018-05-07T23:40:59.568Z,57.09
2018-05-07T23:43:27.632Z,57.41
2018-05-07T23:45:55.747Z,59.01
2018-05-07T23:48:23.762Z,57.94
2018-05-07T23:50:51.751Z,59.03
2018-05-07T23:53:19.730Z,59.76
2018-05-07T23:55:47.783Z,58.28
2018-05-07T23:58:15.799Z,60.01
